Carrizozo, New Mexico
Current Conditions -  °F | °C
As of 10:35 AM on Wednesday 26 Nov 2014 (Local Time) from KSRR Reporting Station
Clear Clear  
Wind Chill: 42°   Ceiling: Unl
Heat Index: 48°   Visibility: 10mi
Dew Point: 19°   Wind: 15mph
Humidity: 32%   Direction: 310°NW
Pressure: 30.38"   Gusts: 22mph
Location:  33.64°N, 105.88°W
Report Text: KSRR 261735Z AUTO 31013G19KT 10SM CLR 09/M07 A3038 RMK AO2
Loading
Personal Weather Stations






























Interactive Weather Map New forecast layout! Learn more

10-Day Weather Forecast

Advertisements
Track Severe Weather on mobile